Nicosia, Cyprus
Current Conditions -  °F | °C
As of 8:30 PM on Friday 21 Nov 2014 (Local Time) from LCLK Reporting Station
Few Clouds Few Clouds  
Wind Chill: 59°   Ceiling: Unl
Heat Index: 59°   Visibility: 6mi
Dew Point: 48°   Wind: 9mph
Humidity: 67%   Direction: 290°WNW
Pressure: 29.83"   Gusts: NA
Location:  34.88°N, 33.63°E
Report Text: LCLK 211730Z 29008KT 9999 FEW030TCU 15/09 Q1010 NOSIG
Loading
Personal Weather Stations






























Interactive Weather Map New forecast layout! Learn more

10-Day Weather Forecast

Advertisements
Track Severe Weather on mobile